Time;durP1;ratioP1;P1;durP2;ratioP2;P2;SDS_P1;SDS_P2;PMS_P1;PMS_P2;Temp;Humidity;BMP_temperature;BMP_pressure;BME280_temperature;BME280_humidity;BME280_pressure;Samples;Min_cycle;Max_cycle;Signal;HPM_P1;HPM_P2
2022/01/10 00:02:14;;;;;;;24.17;4.57;;;1.90;99.90;;;;;;5025966;28;20095;-61
2022/01/10 00:04:39;;;;;;;17.05;5.30;;;1.90;99.90;;;;;;5030995;28;20037;-60
2022/01/10 00:07:05;;;;;;;20.27;4.68;;;1.90;99.90;;;;;;5029749;28;20481;-61
2022/01/10 00:09:30;;;;;;;18.90;5.07;;;1.90;99.90;;;;;;5030726;28;20087;-61
2022/01/10 00:11:56;;;;;;;13.63;5.25;;;1.90;99.90;;;;;;5030717;28;20559;-61
2022/01/10 00:14:21;;;;;;;15.95;5.38;;;1.90;99.90;;;;;;5030125;28;20419;-61
2022/01/10 00:16:47;;;;;;;17.52;4.97;;;1.90;99.90;;;;;;5030382;28;20076;-61
2022/01/10 00:19:13;;;;;;;20.85;6.30;;;1.90;99.90;;;;;;5022017;28;20778;-61
2022/01/10 00:21:38;;;;;;;24.55;5.05;;;1.90;99.90;;;;;;5030413;28;20035;-62
2022/01/10 00:24:04;;;;;;;18.90;6.32;;;1.90;99.90;;;;;;5030085;28;20120;-61
2022/01/10 00:26:30;;;;;;;19.45;6.07;;;1.80;99.90;;;;;;5030294;28;20038;-61
2022/01/10 00:28:55;;;;;;;19.88;5.47;;;1.80;99.90;;;;;;5030403;28;20040;-61
2022/01/10 00:31:21;;;;;;;16.08;5.47;;;1.80;99.90;;;;;;5029751;28;20033;-62
2022/01/10 00:33:47;;;;;;;13.02;5.18;;;1.80;99.90;;;;;;5028696;28;20065;-61
2022/01/10 00:36:12;;;;;;;41.70;7.47;;;1.80;99.90;;;;;;5029959;28;20533;-61
2022/01/10 00:38:38;;;;;;;22.23;4.90;;;1.80;99.90;;;;;;5029931;28;20112;-61
2022/01/10 00:41:04;;;;;;;20.73;5.20;;;1.80;99.90;;;;;;5029561;28;20064;-61
2022/01/10 00:43:35;;;;;;;32.33;7.43;;;1.80;99.90;;;;;;5025243;28;20037;-61
2022/01/10 00:46:03;;;;;;;12.35;5.40;;;1.80;99.90;;;;;;5030293;28;20074;-61
2022/01/10 00:48:29;;;;;;;12.68;4.63;;;1.80;99.90;;;;;;5029449;28;20083;-62
2022/01/10 00:50:54;;;;;;;16.17;5.97;;;1.70;99.90;;;;;;5029822;28;20038;-62
2022/01/10 00:53:20;;;;;;;16.25;4.60;;;1.70;99.90;;;;;;5028537;28;20036;-61
2022/01/10 00:55:46;;;;;;;13.68;5.63;;;1.60;99.90;;;;;;5029727;28;20048;-61
2022/01/10 00:58:11;;;;;;;13.75;4.70;;;1.60;99.90;;;;;;5029581;28;20041;-61
2022/01/10 01:00:37;;;;;;;14.05;4.10;;;1.50;99.90;;;;;;5029721;28;20045;-61
2022/01/10 01:03:03;;;;;;;17.42;5.40;;;1.50;99.90;;;;;;5029304;28;20052;-61
2022/01/10 01:05:30;;;;;;;20.45;5.63;;;1.50;99.90;;;;;;5029742;28;20080;-61
2022/01/10 01:08:00;;;;;;;17.20;5.25;;;1.50;99.90;;;;;;5029838;28;20043;-61
2022/01/10 01:26:26;;;;;;;13.15;5.85;;;1.70;99.90;;;;;;5029193;28;20540;-61
2022/01/10 01:28:52;;;;;;;18.23;5.22;;;1.70;99.90;;;;;;5029378;28;20410;-62
2022/01/10 01:31:18;;;;;;;19.15;6.38;;;1.70;99.90;;;;;;5027327;28;20033;-62
2022/01/10 01:33:44;;;;;;;17.45;5.95;;;1.60;99.90;;;;;;5029438;28;20112;-61
2022/01/10 01:36:09;;;;;;;14.32;5.63;;;1.60;99.90;;;;;;5029151;28;20048;-61
2022/01/10 01:38:36;;;;;;;16.83;5.53;;;1.60;99.90;;;;;;5029343;28;20037;-61
2022/01/10 01:43:47;;;;;;;16.10;5.40;;;1.50;99.90;;;;;;5022991;28;20040;-61
2022/01/10 01:46:14;;;;;;;21.65;5.72;;;1.50;99.90;;;;;;5028966;28;20037;-62
2022/01/10 01:48:40;;;;;;;19.35;5.55;;;1.50;99.90;;;;;;5029260;28;20045;-61
2022/01/10 01:51:06;;;;;;;19.00;6.00;;;1.50;99.90;;;;;;5028759;28;20037;-61
2022/01/10 01:53:32;;;;;;;14.45;5.90;;;1.50;99.90;;;;;;5029076;28;20468;-61
2022/01/10 01:55:58;;;;;;;18.73;8.02;;;1.60;99.90;;;;;;5029175;28;20131;-61
2022/01/10 01:58:25;;;;;;;17.15;6.05;;;1.60;99.90;;;;;;5028742;28;20489;-61
2022/01/10 02:00:51;;;;;;;19.67;5.95;;;1.60;99.90;;;;;;5029051;28;20033;-61
2022/01/10 02:03:17;;;;;;;20.85;6.80;;;1.60;99.90;;;;;;5028974;28;20555;-62
2022/01/10 02:05:43;;;;;;;20.08;5.20;;;1.60;99.90;;;;;;5033340;28;20050;-63
2022/01/10 02:08:09;;;;;;;16.25;5.50;;;1.60;99.90;;;;;;5032027;28;20767;-62
2022/01/10 02:10:35;;;;;;;28.23;6.18;;;1.60;99.90;;;;;;5033382;28;20041;-61
2022/01/10 02:13:00;;;;;;;17.77;6.22;;;1.60;99.90;;;;;;5033570;28;20044;-61
2022/01/10 02:18:17;;;;;;;14.68;5.13;;;1.60;99.90;;;;;;5026377;28;20036;-61
2022/01/10 02:20:43;;;;;;;14.18;5.00;;;1.60;99.90;;;;;;5032221;28;20041;-61
2022/01/10 02:23:09;;;;;;;19.20;5.43;;;1.60;99.90;;;;;;5019127;28;20037;-61
2022/01/10 02:25:35;;;;;;;20.17;5.38;;;1.60;99.90;;;;;;5030868;28;20041;-61
2022/01/10 02:28:01;;;;;;;14.45;6.50;;;1.60;99.90;;;;;;5032224;28;20556;-62
2022/01/10 02:30:27;;;;;;;15.75;5.05;;;1.50;99.90;;;;;;5031860;28;20124;-62
2022/01/10 02:32:56;;;;;;;21.65;5.60;;;1.50;99.90;;;;;;5032207;28;20151;-62
2022/01/10 02:35:27;;;;;;;17.65;5.22;;;1.50;99.90;;;;;;5031875;28;20037;-61
2022/01/10 02:37:55;;;;;;;22.17;5.47;;;1.50;99.90;;;;;;5032280;28;20037;-62
2022/01/10 02:40:24;;;;;;;25.30;7.07;;;1.50;99.90;;;;;;5031388;28;20649;-61
2022/01/10 02:42:50;;;;;;;17.02;5.18;;;1.40;99.90;;;;;;5028754;28;20045;-61
2022/01/10 02:45:17;;;;;;;14.73;5.00;;;1.50;99.90;;;;;;5031629;28;20033;-62
2022/01/10 02:47:43;;;;;;;19.75;6.30;;;1.40;99.90;;;;;;5032012;28;20037;-61
2022/01/10 02:50:10;;;;;;;19.35;5.22;;;1.40;99.90;;;;;;5031287;28;20044;-62
2022/01/10 02:52:36;;;;;;;18.08;6.03;;;1.40;99.90;;;;;;5032052;28;20540;-60
2022/01/10 02:55:04;;;;;;;18.40;5.55;;;1.40;99.90;;;;;;5030818;28;20041;-61
2022/01/10 02:57:30;;;;;;;22.77;5.13;;;1.30;99.90;;;;;;5031646;28;20038;-61
2022/01/10 02:59:57;;;;;;;21.48;5.60;;;1.30;99.90;;;;;;5031805;28;20067;-61
2022/01/10 03:02:27;;;;;;;18.67;5.85;;;1.30;99.90;;;;;;5031210;28;20029;-61
2022/01/10 03:04:52;;;;;;;25.10;6.00;;;1.30;99.90;;;;;;5031894;28;20432;-61
2022/01/10 03:07:21;;;;;;;20.67;6.25;;;1.30;99.90;;;;;;5031116;28;20037;-61
2022/01/10 03:09:47;;;;;;;26.35;6.40;;;1.40;99.90;;;;;;5031374;28;20033;-61
2022/01/10 03:12:13;;;;;;;13.13;6.25;;;1.40;99.90;;;;;;5031108;28;20036;-61
2022/01/10 03:14:38;;;;;;;18.33;6.18;;;1.40;99.90;;;;;;5031149;28;20044;-62
2022/01/10 03:17:04;;;;;;;23.45;6.50;;;1.40;99.90;;;;;;5030179;28;20473;-61
2022/01/10 03:19:30;;;;;;;17.40;6.47;;;1.50;99.90;;;;;;5031454;28;20040;-62
2022/01/10 03:21:55;;;;;;;18.38;5.53;;;1.50;99.90;;;;;;5031195;28;20735;-61
2022/01/10 03:24:21;;;;;;;14.52;5.82;;;1.50;99.90;;;;;;5030871;28;20045;-62
2022/01/10 03:26:46;;;;;;;15.23;5.63;;;1.60;99.90;;;;;;5031463;28;20037;-61
2022/01/10 03:29:12;;;;;;;18.35;6.03;;;1.70;99.90;;;;;;5030986;28;20515;-62
2022/01/10 03:31:38;;;;;;;18.40;5.90;;;1.70;99.90;;;;;;5030781;28;20045;-62
2022/01/10 03:34:06;;;;;;;21.45;6.70;;;1.80;99.90;;;;;;5030912;28;20033;-61
2022/01/10 03:36:32;;;;;;;29.90;9.27;;;1.80;99.90;;;;;;5027335;28;20025;-61
2022/01/10 03:38:58;;;;;;;17.92;6.43;;;1.80;99.90;;;;;;5031168;28;20037;-61
2022/01/10 03:41:23;;;;;;;24.58;7.50;;;1.90;99.90;;;;;;5028981;28;20513;-62
2022/01/10 03:43:49;;;;;;;19.50;6.78;;;2.00;99.90;;;;;;5028911;28;20040;-61
2022/01/10 03:46:15;;;;;;;22.63;6.75;;;2.00;99.90;;;;;;5030546;28;20071;-62
2022/01/10 03:48:40;;;;;;;17.00;5.82;;;2.00;99.90;;;;;;5030813;28;20042;-62
2022/01/10 03:51:06;;;;;;;26.98;6.90;;;2.00;99.90;;;;;;5030279;28;20457;-62
2022/01/10 03:53:31;;;;;;;19.60;6.55;;;2.10;99.90;;;;;;5030664;28;20028;-62
2022/01/10 03:55:57;;;;;;;17.25;7.35;;;2.10;99.90;;;;;;5030828;28;20041;-61
2022/01/10 03:58:23;;;;;;;13.70;6.50;;;2.10;99.90;;;;;;5030084;28;20037;-61
2022/01/10 04:00:48;;;;;;;22.95;6.47;;;2.20;99.90;;;;;;5030445;28;20038;-61
2022/01/10 04:03:14;;;;;;;17.80;7.03;;;2.20;99.90;;;;;;5030203;28;20029;-61
2022/01/10 04:05:39;;;;;;;24.75;6.38;;;2.20;99.90;;;;;;5030639;28;20045;-61
2022/01/10 04:08:05;;;;;;;13.55;5.88;;;2.20;99.90;;;;;;5029853;28;20045;-62
2022/01/10 04:10:31;;;;;;;15.73;6.82;;;2.20;99.90;;;;;;5029753;28;20048;-61
2022/01/10 04:12:57;;;;;;;18.65;5.82;;;2.20;99.90;;;;;;5030493;28;20057;-61
2022/01/10 04:15:23;;;;;;;17.85;6.68;;;2.20;99.90;;;;;;5029875;28;20505;-62
2022/01/10 04:17:57;;;;;;;18.67;7.50;;;2.30;99.90;;;;;;5030328;28;20045;-62
2022/01/10 04:20:23;;;;;;;27.40;7.47;;;2.30;99.90;;;;;;5029637;28;20421;-61
2022/01/10 04:22:49;;;;;;;16.85;7.18;;;2.30;99.90;;;;;;5029873;28;20037;-61
2022/01/10 04:25:15;;;;;;;19.83;7.10;;;2.40;99.90;;;;;;5029934;28;20033;-61
2022/01/10 04:27:41;;;;;;;22.30;7.40;;;2.40;99.90;;;;;;5029952;28;20049;-61
2022/01/10 04:30:07;;;;;;;22.63;6.82;;;2.50;99.90;;;;;;5027471;28;20699;-60
2022/01/10 04:32:33;;;;;;;29.67;8.82;;;2.50;99.90;;;;;;5030041;28;20029;-61
2022/01/10 04:34:59;;;;;;;18.02;6.53;;;2.50;99.90;;;;;;5026145;28;20033;-62
2022/01/10 04:37:25;;;;;;;13.85;6.50;;;2.50;99.90;;;;;;5029450;28;20029;-62
2022/01/10 04:39:52;;;;;;;18.63;7.43;;;2.50;99.90;;;;;;5029791;28;20140;-61
2022/01/10 04:42:17;;;;;;;15.48;5.95;;;2.50;99.90;;;;;;5026565;28;20434;-61
2022/01/10 04:44:43;;;;;;;21.17;7.15;;;2.60;99.90;;;;;;5030055;28;20048;-62
2022/01/10 04:47:09;;;;;;;17.90;7.07;;;2.50;99.90;;;;;;5029531;28;20726;-61
2022/01/10 04:52:19;;;;;;;22.38;7.50;;;2.50;99.90;;;;;;5029450;28;20025;-61
2022/01/10 04:54:44;;;;;;;22.48;8.15;;;2.60;99.90;;;;;;5027945;28;20037;-60
2022/01/10 04:57:10;;;;;;;24.55;7.35;;;2.60;99.90;;;;;;5029182;28;20452;-62
2022/01/10 04:59:36;;;;;;;18.48;7.78;;;2.60;99.90;;;;;;5029665;28;20033;-62
2022/01/10 05:02:01;;;;;;;18.33;6.85;;;2.60;99.90;;;;;;5029392;28;20049;-62
2022/01/10 05:04:27;;;;;;;22.98;7.45;;;2.70;99.90;;;;;;5029333;28;20389;-62
2022/01/10 05:06:53;;;;;;;24.70;7.80;;;2.60;99.90;;;;;;5029345;28;20034;-62
2022/01/10 05:09:18;;;;;;;23.15;7.07;;;2.60;99.90;;;;;;5028990;28;20037;-61
2022/01/10 05:11:45;;;;;;;24.35;7.43;;;2.70;99.90;;;;;;5029396;28;20040;-61
2022/01/10 05:14:11;;;;;;;24.80;6.95;;;2.70;99.90;;;;;;5028823;28;20040;-61
2022/01/10 05:16:39;;;;;;;32.05;8.27;;;2.70;99.90;;;;;;5029408;28;20029;-61
2022/01/10 05:19:04;;;;;;;21.63;7.82;;;2.70;99.90;;;;;;5029101;28;20040;-62
2022/01/10 05:21:30;;;;;;;30.80;7.90;;;2.70;99.90;;;;;;5029274;28;20037;-61
2022/01/10 05:23:56;;;;;;;25.23;8.00;;;2.70;99.90;;;;;;5029301;28;20057;-63
2022/01/10 05:26:21;;;;;;;22.50;7.88;;;2.80;99.90;;;;;;5028814;28;20060;-61
2022/01/10 05:28:47;;;;;;;16.08;7.28;;;2.80;99.90;;;;;;5029497;28;20405;-61
2022/01/10 05:31:12;;;;;;;22.30;7.80;;;2.80;99.90;;;;;;5020369;28;20038;-61
2022/01/10 05:33:38;;;;;;;17.13;8.23;;;2.80;99.90;;;;;;5021944;28;20648;-61
2022/01/10 05:36:04;;;;;;;16.00;6.97;;;2.80;99.90;;;;;;5027130;28;20038;-66
2022/01/10 05:38:29;;;;;;;19.92;7.50;;;2.80;99.90;;;;;;5013923;28;20041;-61
2022/01/10 05:40:55;;;;;;;19.63;7.40;;;2.80;99.90;;;;;;5016670;28;20038;-62
2022/01/10 05:43:21;;;;;;;24.80;6.38;;;2.80;99.90;;;;;;5017725;28;20040;-61
2022/01/10 05:45:46;;;;;;;21.85;7.53;;;2.90;99.90;;;;;;5017439;28;20038;-61
2022/01/10 05:48:15;;;;;;;18.77;7.43;;;2.90;99.90;;;;;;5017331;28;20033;-61
2022/01/10 05:50:43;;;;;;;28.98;8.10;;;2.90;99.90;;;;;;5015886;28;20046;-62
2022/01/10 05:53:10;;;;;;;27.23;7.00;;;2.90;99.90;;;;;;5017085;28;20700;-62
2022/01/10 05:55:37;;;;;;;20.92;6.97;;;2.90;99.90;;;;;;5016231;28;20043;-63
2022/01/10 05:58:05;;;;;;;16.63;6.18;;;2.90;99.90;;;;;;5032993;28;20045;-62
2022/01/10 06:00:31;;;;;;;19.95;7.07;;;2.90;99.90;;;;;;5031465;28;20030;-63
2022/01/10 06:02:56;;;;;;;19.17;7.43;;;2.90;99.90;;;;;;5025857;28;20047;-63
2022/01/10 06:05:24;;;;;;;23.90;6.75;;;2.90;99.90;;;;;;5020531;28;20065;-61
2022/01/10 06:07:49;;;;;;;20.92;7.63;;;2.90;99.90;;;;;;5025085;28;20120;-61
2022/01/10 06:10:15;;;;;;;19.15;6.45;;;2.90;99.90;;;;;;5019593;28;20180;-62
2022/01/10 06:12:41;;;;;;;19.27;6.13;;;2.90;99.90;;;;;;5014448;28;20030;-62
2022/01/10 06:15:07;;;;;;;15.15;6.22;;;3.00;99.90;;;;;;5014213;28;20042;-61
2022/01/10 06:17:32;;;;;;;16.10;7.13;;;2.90;99.90;;;;;;5016730;28;20049;-61
2022/01/10 06:19:59;;;;;;;20.10;5.93;;;2.90;99.90;;;;;;5012763;28;20037;-63
2022/01/10 06:22:25;;;;;;;23.02;7.35;;;3.00;99.90;;;;;;5011689;28;20128;-61
2022/01/10 06:24:50;;;;;;;14.18;6.32;;;3.00;99.90;;;;;;5010746;28;20065;-61
2022/01/10 06:27:16;;;;;;;28.25;7.40;;;3.00;99.90;;;;;;5016547;28;20088;-61
2022/01/10 06:29:42;;;;;;;15.23;5.75;;;2.90;99.90;;;;;;5014349;28;20605;-62
2022/01/10 06:32:07;;;;;;;19.40;6.68;;;3.00;99.90;;;;;;5015500;28;20137;-61
2022/01/10 06:34:33;;;;;;;16.83;6.28;;;3.00;99.90;;;;;;5012897;28;20030;-62
2022/01/10 06:37:01;;;;;;;14.75;5.57;;;3.00;99.90;;;;;;5012458;28;20171;-62
2022/01/10 06:39:27;;;;;;;22.52;6.22;;;3.00;99.90;;;;;;5011664;28;20037;-62
2022/01/10 06:41:52;;;;;;;17.70;6.07;;;3.00;99.90;;;;;;5011038;28;20026;-62
2022/01/10 06:44:18;;;;;;;20.25;7.78;;;3.00;99.90;;;;;;5014579;28;20057;-61
2022/01/10 06:46:44;;;;;;;20.17;6.78;;;3.00;99.90;;;;;;5013979;28;20126;-62
2022/01/10 06:49:09;;;;;;;21.70;7.47;;;3.00;99.90;;;;;;5013209;28;20030;-62
2022/01/10 06:51:35;;;;;;;22.92;7.10;;;3.00;99.90;;;;;;5013992;28;20797;-61
2022/01/10 06:54:01;;;;;;;15.63;6.20;;;2.90;99.90;;;;;;5014442;28;20037;-61
2022/01/10 06:56:26;;;;;;;19.90;6.85;;;3.00;99.90;;;;;;5012828;28;20034;-61
2022/01/10 06:58:53;;;;;;;20.85;6.40;;;3.00;99.90;;;;;;5012741;28;20104;-62
2022/01/10 07:01:20;;;;;;;18.80;7.40;;;3.00;99.90;;;;;;5011494;28;20069;-61
2022/01/10 07:03:46;;;;;;;22.13;7.10;;;3.00;99.90;;;;;;5014168;28;20131;-61
2022/01/10 07:06:11;;;;;;;17.27;6.75;;;3.10;99.90;;;;;;5012595;28;20497;-61
2022/01/10 07:08:37;;;;;;;16.67;5.88;;;3.10;99.90;;;;;;5012127;28;20045;-60
2022/01/10 07:11:03;;;;;;;18.92;7.43;;;3.10;99.90;;;;;;5017958;28;20076;-61
2022/01/10 07:13:29;;;;;;;21.58;6.90;;;3.10;99.90;;;;;;5018032;28;20030;-62
2022/01/10 07:15:54;;;;;;;15.68;6.65;;;3.10;99.90;;;;;;5012533;28;20041;-61
2022/01/10 07:18:20;;;;;;;18.60;6.18;;;3.10;99.90;;;;;;5013689;28;20037;-61
2022/01/10 07:20:46;;;;;;;19.60;6.57;;;3.10;99.90;;;;;;5013592;28;20037;-62
2022/01/10 07:23:11;;;;;;;20.65;7.50;;;3.10;99.90;;;;;;5011881;28;20120;-62
2022/01/10 07:25:37;;;;;;;26.33;7.00;;;3.10;99.90;;;;;;5010323;28;20046;-62
2022/01/10 07:28:03;;;;;;;15.80;6.03;;;3.10;99.90;;;;;;5011917;28;20056;-62
2022/01/10 07:30:29;;;;;;;21.35;7.25;;;3.10;99.90;;;;;;5013618;28;20037;-62
2022/01/10 07:32:55;;;;;;;18.77;5.97;;;3.20;99.90;;;;;;5012113;28;20545;-61
2022/01/10 07:35:20;;;;;;;19.20;7.00;;;3.20;99.90;;;;;;5013961;28;20493;-62
2022/01/10 07:37:46;;;;;;;21.02;7.10;;;3.10;99.90;;;;;;5012464;28;20037;-61
2022/01/10 07:40:12;;;;;;;27.55;7.82;;;3.10;99.90;;;;;;5011475;28;20033;-61
2022/01/10 07:42:38;;;;;;;16.15;7.25;;;3.10;99.90;;;;;;5011042;28;20129;-62
2022/01/10 07:45:04;;;;;;;24.10;7.28;;;3.10;99.90;;;;;;5009493;28;20156;-61
2022/01/10 07:47:31;;;;;;;22.35;6.95;;;3.10;99.90;;;;;;5014277;28;20501;-63
2022/01/10 07:49:56;;;;;;;22.38;7.97;;;3.10;99.90;;;;;;5014191;28;20037;-62
2022/01/10 07:52:22;;;;;;;22.50;8.15;;;3.00;99.90;;;;;;5012212;28;20509;-63
2022/01/10 07:54:48;;;;;;;30.23;6.95;;;3.00;99.90;;;;;;5012561;28;20131;-62
2022/01/10 07:57:14;;;;;;;33.22;7.30;;;3.00;99.90;;;;;;5013042;28;20029;-62
2022/01/10 07:59:40;;;;;;;22.08;7.85;;;3.00;99.90;;;;;;5023969;28;20112;-61
2022/01/10 08:02:06;;;;;;;32.83;7.10;;;3.00;99.90;;;;;;5010672;28;20100;-62
2022/01/10 08:04:32;;;;;;;23.13;6.57;;;3.00;99.90;;;;;;5013090;28;20474;-62
2022/01/10 08:06:57;;;;;;;25.73;6.32;;;3.00;99.90;;;;;;5013871;28;20475;-61
2022/01/10 08:09:23;;;;;;;18.55;6.53;;;3.00;99.90;;;;;;5011721;28;20033;-62
2022/01/10 08:11:48;;;;;;;26.10;7.03;;;3.00;99.90;;;;;;5011209;28;20042;-62
2022/01/10 08:14:14;;;;;;;27.08;6.30;;;3.10;99.90;;;;;;5010398;28;20038;-62
2022/01/10 08:16:40;;;;;;;18.20;6.60;;;3.10;99.90;;;;;;5012232;28;20620;-62
2022/01/10 08:19:06;;;;;;;18.02;6.95;;;3.10;99.90;;;;;;5011938;28;20488;-65
2022/01/10 08:21:32;;;;;;;14.32;6.13;;;3.10;99.90;;;;;;5008406;28;20180;-62
2022/01/10 08:23:57;;;;;;;22.13;6.78;;;3.10;99.90;;;;;;5005320;28;20120;-61
2022/01/10 08:26:23;;;;;;;16.08;6.72;;;3.20;99.90;;;;;;5015112;28;20169;-62
2022/01/10 08:28:49;;;;;;;19.50;6.32;;;3.10;99.90;;;;;;5012813;28;20509;-62
2022/01/10 08:31:15;;;;;;;22.73;7.82;;;3.20;99.90;;;;;;5010377;28;20533;-62
2022/01/10 08:33:41;;;;;;;14.55;6.40;;;3.20;99.90;;;;;;5014013;28;20049;-62
2022/01/10 08:36:07;;;;;;;22.33;7.38;;;3.20;99.90;;;;;;5009534;28;20040;-62
2022/01/10 08:38:33;;;;;;;19.42;6.25;;;3.20;99.90;;;;;;5012963;28;20401;-62
2022/01/10 08:40:59;;;;;;;16.10;6.22;;;3.30;99.90;;;;;;5017223;28;20462;-61
2022/01/10 08:43:24;;;;;;;21.48;7.35;;;3.30;99.90;;;;;;5012903;28;20042;-61
2022/01/10 08:45:50;;;;;;;18.67;7.22;;;3.40;99.90;;;;;;5009335;28;20132;-61
2022/01/10 08:48:16;;;;;;;18.42;7.93;;;3.50;99.90;;;;;;5012118;28;20030;-61
2022/01/10 08:50:41;;;;;;;15.27;6.43;;;3.50;99.90;;;;;;5010570;28;20061;-62
2022/01/10 08:53:09;;;;;;;24.50;7.40;;;3.50;99.90;;;;;;5011335;28;20037;-62
2022/01/10 08:55:34;;;;;;;17.35;6.30;;;3.50;99.90;;;;;;5010181;28;20030;-62
2022/01/10 08:58:01;;;;;;;23.73;7.88;;;3.60;99.90;;;;;;5007467;28;20045;-60
2022/01/10 09:00:27;;;;;;;21.02;6.90;;;3.60;99.90;;;;;;5008098;28;20150;-61
2022/01/10 09:02:53;;;;;;;20.55;7.43;;;3.60;99.90;;;;;;5014515;28;20136;-62
2022/01/10 09:05:19;;;;;;;19.38;7.93;;;3.60;99.90;;;;;;5013905;28;20045;-61
2022/01/10 09:07:45;;;;;;;27.83;7.07;;;3.60;99.90;;;;;;5011165;28;20037;-62
2022/01/10 09:10:10;;;;;;;20.52;7.05;;;3.70;99.90;;;;;;5013881;28;20486;-61
2022/01/10 09:12:38;;;;;;;23.65;8.25;;;3.60;99.90;;;;;;5011562;28;20038;-61
2022/01/10 09:15:05;;;;;;;23.13;7.60;;;3.60;99.90;;;;;;5009842;28;20083;-61
2022/01/10 09:17:31;;;;;;;19.15;7.05;;;3.60;99.90;;;;;;5008111;28;20152;-61
2022/01/10 09:19:57;;;;;;;19.30;7.05;;;3.60;99.90;;;;;;5013388;28;20121;-61
2022/01/10 09:22:23;;;;;;;27.27;8.35;;;3.60;99.90;;;;;;5015387;28;20030;-61
2022/01/10 09:24:49;;;;;;;18.05;7.28;;;3.60;99.90;;;;;;5009527;28;20064;-62
2022/01/10 09:27:15;;;;;;;22.02;9.10;;;3.70;99.90;;;;;;5010189;28;20042;-62
2022/01/10 09:29:42;;;;;;;18.27;6.80;;;3.80;99.90;;;;;;5012499;28;20056;-62
2022/01/10 09:32:09;;;;;;;15.73;7.60;;;3.80;99.90;;;;;;5013852;28;20041;-62
2022/01/10 09:34:35;;;;;;;20.38;7.68;;;4.00;99.90;;;;;;5013642;28;20033;-62
2022/01/10 09:37:01;;;;;;;28.85;7.20;;;4.00;99.90;;;;;;5013653;28;20033;-62
2022/01/10 09:39:27;;;;;;;22.63;8.40;;;4.10;99.90;;;;;;5015223;28;20498;-61
2022/01/10 09:41:56;;;;;;;22.88;7.28;;;4.20;99.90;;;;;;5012502;28;20109;-61
2022/01/10 09:44:23;;;;;;;19.40;7.32;;;4.30;99.90;;;;;;5014079;28;20041;-62
2022/01/10 09:46:48;;;;;;;18.17;7.97;;;4.40;99.90;;;;;;5012486;28;20036;-62
2022/01/10 09:49:15;;;;;;;16.90;6.78;;;4.50;99.90;;;;;;5010842;28;20034;-62
2022/01/10 09:51:41;;;;;;;20.70;7.75;;;4.60;99.90;;;;;;5010741;28;20030;-61
2022/01/10 09:54:06;;;;;;;21.55;7.22;;;4.60;99.90;;;;;;5008655;28;20044;-61
2022/01/10 09:56:32;;;;;;;14.73;6.75;;;4.50;99.90;;;;;;5018298;28;20478;-61
2022/01/10 09:58:59;;;;;;;20.55;6.70;;;4.60;99.90;;;;;;5016510;28;20167;-61
2022/01/10 10:01:27;;;;;;;24.55;8.52;;;4.60;99.90;;;;;;5017932;28;20030;-61
2022/01/10 10:03:58;;;;;;;18.67;7.55;;;4.70;99.90;;;;;;5009398;28;20117;-62
2022/01/10 10:06:24;;;;;;;18.27;6.97;;;4.70;99.90;;;;;;5011712;28;20037;-61
2022/01/10 10:08:50;;;;;;;23.98;6.82;;;4.70;99.90;;;;;;5011350;28;20045;-62
2022/01/10 10:11:16;;;;;;;19.17;6.90;;;4.80;99.90;;;;;;5015926;28;20034;-61
2022/01/10 10:13:56;;;;;;;18.05;7.80;;;4.80;99.90;;;;;;5010481;28;20508;-61
2022/01/10 10:16:23;;;;;;;16.05;6.90;;;4.80;99.90;;;;;;5015290;28;20425;-60
2022/01/10 10:18:49;;;;;;;16.92;6.10;;;4.90;99.90;;;;;;5014249;28;20065;-61
2022/01/10 10:21:17;;;;;;;30.63;7.07;;;4.90;99.90;;;;;;5010139;28;20798;-61
2022/01/10 10:23:48;;;;;;;18.10;6.60;;;5.00;99.90;;;;;;5011382;28;20034;-61
2022/01/10 10:26:20;;;;;;;23.88;6.57;;;5.00;99.90;;;;;;5011687;28;20100;-61
2022/01/10 10:28:47;;;;;;;19.27;6.60;;;5.10;99.90;;;;;;5011808;28;20122;-60
2022/01/10 10:31:22;;;;;;;25.52;7.13;;;5.10;99.90;;;;;;5017362;28;20103;-61
2022/01/10 10:33:49;;;;;;;22.77;6.95;;;5.20;99.90;;;;;;5023649;28;20058;-61
2022/01/10 10:36:16;;;;;;;22.60;7.22;;;5.20;99.90;;;;;;5017757;28;20037;-60
2022/01/10 10:38:42;;;;;;;23.85;6.50;;;5.20;99.90;;;;;;5020266;28;20526;-60
2022/01/10 10:41:07;;;;;;;16.48;5.88;;;5.10;99.90;;;;;;5020186;28;20121;-61
2022/01/10 10:43:35;;;;;;;19.10;5.68;;;5.20;99.90;;;;;;5013999;28;20109;-60
2022/01/10 10:46:02;;;;;;;18.48;6.70;;;5.20;99.90;;;;;;5020107;28;20044;-61
2022/01/10 10:48:29;;;;;;;26.27;6.55;;;5.20;99.90;;;;;;5013744;28;20048;-61
2022/01/10 10:50:58;;;;;;;21.45;7.28;;;5.20;99.90;;;;;;5014474;28;20137;-61
2022/01/10 10:53:26;;;;;;;16.48;6.57;;;5.30;99.90;;;;;;5012525;28;20049;-61
2022/01/10 10:55:52;;;;;;;21.70;6.53;;;5.30;99.90;;;;;;5015978;28;20038;-61
2022/01/10 10:58:18;;;;;;;19.13;6.32;;;5.30;99.90;;;;;;5012911;28;20038;-61
2022/01/10 11:00:43;;;;;;;23.80;5.70;;;5.40;99.90;;;;;;5010265;28;20038;-61
2022/01/10 11:03:12;;;;;;;16.33;6.63;;;5.40;99.90;;;;;;5014346;28;20065;-62
2022/01/10 11:05:38;;;;;;;13.93;5.80;;;5.50;99.90;;;;;;5015111;28;20406;-62
2022/01/10 11:08:04;;;;;;;26.58;8.07;;;5.50;99.90;;;;;;5013706;28;20065;-61
2022/01/10 11:10:30;;;;;;;18.10;6.50;;;5.50;99.90;;;;;;5013107;28;20538;-61
2022/01/10 11:12:59;;;;;;;18.33;5.88;;;5.60;99.90;;;;;;5014428;28;20049;-61
2022/01/10 11:15:25;;;;;;;23.23;7.38;;;5.50;99.90;;;;;;5011916;28;20433;-61
2022/01/10 11:17:59;;;;;;;24.25;6.68;;;5.50;99.90;;;;;;5013938;28;20069;-60
2022/01/10 11:20:25;;;;;;;15.38;6.28;;;5.60;99.90;;;;;;5010743;28;20045;-61
2022/01/10 11:22:55;;;;;;;15.95;5.93;;;5.60;99.90;;;;;;5012358;28;20065;-61
2022/01/10 11:25:22;;;;;;;23.53;7.60;;;5.50;99.90;;;;;;5008862;28;20037;-61
2022/01/10 11:27:49;;;;;;;17.23;6.20;;;5.40;99.90;;;;;;5011772;28;20038;-61
2022/01/10 11:30:32;;;;;;;22.17;6.45;;;5.40;99.90;;;;;;5015470;28;20038;-62
2022/01/10 11:33:29;;;;;;;20.23;7.63;;;5.40;99.90;;;;;;5012625;28;20045;-61
2022/01/10 11:36:09;;;;;;;21.60;7.57;;;5.40;99.90;;;;;;5006662;28;20026;-61
2022/01/10 11:38:49;;;;;;;17.95;6.40;;;5.40;99.90;;;;;;5012050;28;20437;-61
2022/01/10 11:41:19;;;;;;;25.58;6.97;;;5.40;99.90;;;;;;5011433;28;20057;-62
2022/01/10 11:44:01;;;;;;;16.58;7.10;;;5.40;99.90;;;;;;5031251;28;20037;-62
2022/01/10 11:46:40;;;;;;;19.20;7.07;;;5.40;99.90;;;;;;5027428;28;20038;-62
2022/01/10 11:49:09;;;;;;;19.52;6.38;;;5.40;99.90;;;;;;5015331;28;20381;-62
2022/01/10 11:51:41;;;;;;;17.40;7.15;;;5.40;99.90;;;;;;5011202;28;20041;-61
2022/01/10 11:54:22;;;;;;;23.75;7.70;;;5.40;99.90;;;;;;5011718;28;20053;-61
2022/01/10 11:57:08;;;;;;;15.38;6.47;;;5.50;99.90;;;;;;5007597;28;20061;-61
2022/01/10 11:59:35;;;;;;;27.15;7.47;;;5.50;99.90;;;;;;5014623;28;20379;-61
2022/01/10 12:02:10;;;;;;;19.15;7.60;;;5.50;99.90;;;;;;5009463;28;20037;-62
2022/01/10 12:04:43;;;;;;;29.05;7.72;;;5.50;99.90;;;;;;5012873;28;20041;-62
2022/01/10 12:07:10;;;;;;;26.20;7.65;;;5.50;99.90;;;;;;5011161;28;20026;-62
2022/01/10 12:09:37;;;;;;;23.60;8.25;;;5.50;99.90;;;;;;5012868;28;20563;-61
2022/01/10 12:12:04;;;;;;;18.00;7.15;;;5.50;99.90;;;;;;5012353;28;20490;-62
2022/01/10 12:14:30;;;;;;;23.45;9.30;;;5.50;99.90;;;;;;5012616;28;20116;-62
2022/01/10 12:16:58;;;;;;;21.67;7.18;;;5.50;99.90;;;;;;5014590;28;20264;-61
2022/01/10 12:19:25;;;;;;;19.52;7.57;;;5.50;99.90;;;;;;5015381;28;20030;-61
2022/01/10 12:21:51;;;;;;;25.50;8.02;;;5.50;99.90;;;;;;5013202;28;20064;-61
2022/01/10 12:24:17;;;;;;;26.83;8.38;;;5.50;99.90;;;;;;5014207;28;20030;-61
2022/01/10 12:26:43;;;;;;;21.83;8.85;;;5.70;99.90;;;;;;5014819;28;20037;-61
2022/01/10 12:29:11;;;;;;;21.50;7.47;;;5.70;99.90;;;;;;5009593;28;20033;-61
2022/01/10 12:31:39;;;;;;;19.25;6.85;;;5.70;99.90;;;;;;5009626;28;20389;-61
2022/01/10 12:34:08;;;;;;;19.27;7.32;;;5.80;99.90;;;;;;5011191;28;20034;-62
2022/01/10 12:36:35;;;;;;;23.48;7.57;;;5.80;99.90;;;;;;5013931;28;20034;-62
2022/01/10 12:39:11;;;;;;;16.85;7.05;;;5.80;99.90;;;;;;5011596;28;20043;-62
2022/01/10 12:41:37;;;;;;;33.22;8.85;;;5.80;99.90;;;;;;5011627;28;20026;-62
2022/01/10 12:44:04;;;;;;;22.83;6.80;;;5.80;99.90;;;;;;5012244;28;20041;-61
2022/01/10 12:46:33;;;;;;;23.70;7.25;;;5.80;99.90;;;;;;5011559;28;20065;-61
2022/01/10 12:49:03;;;;;;;20.20;7.15;;;5.80;99.90;;;;;;5014945;28;20172;-62
2022/01/10 12:51:42;;;;;;;23.52;7.95;;;5.80;99.90;;;;;;5018994;28;20037;-62
2022/01/10 12:54:15;;;;;;;16.70;7.18;;;5.80;99.90;;;;;;5012714;28;20049;-62
2022/01/10 12:56:41;;;;;;;23.35;6.63;;;5.80;99.90;;;;;;5010323;28;20042;-61
2022/01/10 12:59:10;;;;;;;22.52;7.55;;;5.80;99.90;;;;;;5014765;28;20435;-61
2022/01/10 13:01:36;;;;;;;19.00;7.80;;;5.80;99.90;;;;;;5012311;28;20034;-61
2022/01/10 13:04:04;;;;;;;22.77;8.20;;;5.80;99.90;;;;;;5011663;28;20071;-63
2022/01/10 13:06:37;;;;;;;14.50;6.85;;;5.80;99.90;;;;;;5010238;28;20083;-62
2022/01/10 13:09:04;;;;;;;24.60;8.25;;;5.80;99.90;;;;;;5015561;28;20477;-61
2022/01/10 13:11:41;;;;;;;17.83;7.57;;;5.80;99.90;;;;;;5015318;28;20564;-61